LFCR/RDZ METAR and TAF weather

Enter ICAO airport designator
Station Type Date Time Source
LFCR METAR 2019/12/07 15:00 UTC NOAA

LFCR 071500Z AUTO VRB02KT 5000 BR OVC010 07/07 Q1022 NOSIG


Station Type Date Time Source
LFCR Decoded METAR 2019/12/07 15:00 UTC NOAA

Rodez, France (LFCR) 44-24N 002-29E 580M
Dec 07, 2019 - 10:00 AM EST / 2019.12.07 1500 UTC
Wind: Variable at 2 MPH (2 KT):0
Visibility: 3 mile(s):0
Sky conditions: overcast
Weather: mist
Temperature: 44 F (7 C)
Dew Point: 44 F (7 C)
Relative Humidity: 100%
Pressure (altimeter): 30.18 in. Hg (1022 hPa)
ob: LFCR 071500Z AUTO VRB02KT 5000 BR OVC010 07/07 Q1022 NOSIG
cycle: 15

Station Type Date Time Source
LFCR TAF 2019/12/07 14:11 UTC NOAA

TAF
AMD LFCR 071403Z 0714/0812 VRB03KT 9999 SCT008 BKN025
TEMPO 0714/0810 3000 -DZRA BKN005 PROB30
TEMPO 0723/0808 0500 FG VV///
BECMG 0810/0812 22008KT BKN013

Example: see airport list